sensor_id;sensor_type;location;lat;lon;timestamp;pressure;altitude;pressure_sealevel;temperature;humidity
32789;BME280;19141;48.980;8.410;2024-01-15T05:22:33;99205.78;;;-1.45;100.00
32789;BME280;19141;48.980;8.410;2024-01-15T05:24:58;99209.16;;;-1.54;100.00
32789;BME280;19141;48.980;8.410;2024-01-15T05:27:24;99211.50;;;-1.51;100.00
32789;BME280;19141;48.980;8.410;2024-01-15T05:29:49;99207.25;;;-1.52;100.00
32789;BME280;19141;48.980;8.410;2024-01-15T05:32:14;99206.06;;;-1.48;100.00
32789;BME280;19141;48.980;8.410;2024-01-15T05:34:40;99202.47;;;-1.35;100.00
32789;BME280;19141;48.980;8.410;2024-01-15T05:37:05;99192.25;;;-1.39;100.00
32789;BME280;19141;48.980;8.410;2024-01-15T05:39:30;99199.09;;;-1.26;100.00
32789;BME280;19141;48.980;8.410;2024-01-15T05:41:56;99209.47;;;-1.36;100.00
32789;BME280;19141;48.980;8.410;2024-01-15T05:44:21;99212.31;;;-1.39;100.00
32789;BME280;19141;48.980;8.410;2024-01-15T05:46:47;99203.44;;;-1.48;100.00
32789;BME280;19141;48.980;8.410;2024-01-15T05:49:12;99214.47;;;-1.44;100.00
32789;BME280;19141;48.980;8.410;2024-01-15T05:51:38;99204.28;;;-1.47;100.00
32789;BME280;19141;48.980;8.410;2024-01-15T05:54:03;99197.25;;;-1.47;100.00
32789;BME280;19141;48.980;8.410;2024-01-15T05:56:28;99198.06;;;-1.35;100.00
32789;BME280;19141;48.980;8.410;2024-01-15T05:58:54;99199.41;;;-1.52;100.00
32789;BME280;19141;48.980;8.410;2024-01-15T06:01:19;99182.41;;;-1.46;100.00
32789;BME280;19141;48.980;8.410;2024-01-15T06:03:45;99171.13;;;-1.47;100.00
32789;BME280;19141;48.980;8.410;2024-01-15T06:06:10;99161.88;;;-1.51;100.00
32789;BME280;19141;48.980;8.410;2024-01-15T06:08:35;99162.34;;;-1.46;100.00
32789;BME280;19141;48.980;8.410;2024-01-15T06:11:01;99158.75;;;-1.33;100.00
32789;BME280;19141;48.980;8.410;2024-01-15T06:13:26;99165.75;;;-1.34;100.00
32789;BME280;19141;48.980;8.410;2024-01-15T06:15:51;99162.06;;;-1.31;100.00
32789;BME280;19141;48.980;8.410;2024-01-15T06:18:17;99160.88;;;-1.27;100.00
32789;BME280;19141;48.980;8.410;2024-01-15T06:20:42;99160.16;;;-1.29;100.00
32789;BME280;19141;48.980;8.410;2024-01-15T06:23:08;99165.44;;;-1.41;100.00
32789;BME280;19141;48.980;8.410;2024-01-15T06:25:33;99176.00;;;-1.42;100.00
32789;BME280;19141;48.980;8.410;2024-01-15T06:27:59;99170.72;;;-1.31;100.00
32789;BME280;19141;48.980;8.410;2024-01-15T06:30:24;99182.97;;;-1.31;100.00
32789;BME280;19141;48.980;8.410;2024-01-15T06:32:50;99193.72;;;-1.14;100.00
32789;BME280;19141;48.980;8.410;2024-01-15T06:35:15;99196.03;;;-1.31;100.00
32789;BME280;19141;48.980;8.410;2024-01-15T06:37:41;99194.63;;;-1.35;100.00
32789;BME280;19141;48.980;8.410;2024-01-15T06:40:07;99188.69;;;-1.38;100.00
32789;BME280;19141;48.980;8.410;2024-01-15T06:42:32;99177.72;;;-1.20;100.00
32789;BME280;19141;48.980;8.410;2024-01-15T06:44:58;99183.28;;;-1.25;100.00
32789;BME280;19141;48.980;8.410;2024-01-15T06:47:23;99179.28;;;-1.29;100.00
32789;BME280;19141;48.980;8.410;2024-01-15T06:49:49;99171.19;;;-1.26;100.00
32789;BME280;19141;48.980;8.410;2024-01-15T06:52:15;99170.69;;;-1.20;100.00
32789;BME280;19141;48.980;8.410;2024-01-15T06:54:41;99184.03;;;-1.23;100.00
32789;BME280;19141;48.980;8.410;2024-01-15T06:57:06;99182.03;;;-1.30;100.00
32789;BME280;19141;48.980;8.410;2024-01-15T06:59:32;99186.63;;;-1.23;100.00
32789;BME280;19141;48.980;8.410;2024-01-15T07:01:57;99183.13;;;-1.12;100.00
32789;BME280;19141;48.980;8.410;2024-01-15T07:04:24;99184.69;;;-1.10;100.00
32789;BME280;19141;48.980;8.410;2024-01-15T07:06:49;99180.13;;;-1.28;100.00
32789;BME280;19141;48.980;8.410;2024-01-15T07:09:15;99183.22;;;-1.34;100.00
32789;BME280;19141;48.980;8.410;2024-01-15T07:11:45;99196.84;;;-1.31;100.00
32789;BME280;19141;48.980;8.410;2024-01-15T07:14:13;99189.81;;;-1.19;100.00
32789;BME280;19141;48.980;8.410;2024-01-15T07:16:39;99203.00;;;-1.21;100.00
32789;BME280;19141;48.980;8.410;2024-01-15T07:19:05;99202.19;;;-1.21;100.00
32789;BME280;19141;48.980;8.410;2024-01-15T07:21:30;99201.22;;;-1.20;100.00
32789;BME280;19141;48.980;8.410;2024-01-15T07:23:55;99202.41;;;-1.24;100.00
32789;BME280;19141;48.980;8.410;2024-01-15T07:26:21;99205.97;;;-1.25;100.00
32789;BME280;19141;48.980;8.410;2024-01-15T07:28:46;99197.16;;;-1.13;100.00
32789;BME280;19141;48.980;8.410;2024-01-15T07:31:12;99199.56;;;-1.21;100.00
32789;BME280;19141;48.980;8.410;2024-01-15T07:33:37;99200.53;;;-1.22;100.00
32789;BME280;19141;48.980;8.410;2024-01-15T07:36:03;99205.63;;;-1.21;100.00
32789;BME280;19141;48.980;8.410;2024-01-15T07:38:28;99199.06;;;-1.15;100.00
32789;BME280;19141;48.980;8.410;2024-01-15T07:40:54;99217.09;;;-1.12;100.00
32789;BME280;19141;48.980;8.410;2024-01-15T07:43:20;99206.16;;;-1.06;100.00
32789;BME280;19141;48.980;8.410;2024-01-15T07:45:45;99203.13;;;-0.90;100.00
32789;BME280;19141;48.980;8.410;2024-01-15T07:48:11;99207.81;;;-1.05;100.00
32789;BME280;19141;48.980;8.410;2024-01-15T07:50:37;99205.94;;;-1.03;100.00
32789;BME280;19141;48.980;8.410;2024-01-15T07:53:02;99205.50;;;-0.87;100.00
32789;BME280;19141;48.980;8.410;2024-01-15T07:55:29;99211.38;;;-1.06;100.00
32789;BME280;19141;48.980;8.410;2024-01-15T07:57:55;99203.13;;;-0.90;100.00
32789;BME280;19141;48.980;8.410;2024-01-15T08:00:24;99211.41;;;-0.85;100.00
32789;BME280;19141;48.980;8.410;2024-01-15T08:02:49;99213.34;;;-0.87;100.00
32789;BME280;19141;48.980;8.410;2024-01-15T08:05:16;99213.03;;;-0.73;100.00
32789;BME280;19141;48.980;8.410;2024-01-15T08:07:42;99208.53;;;-0.71;100.00
32789;BME280;19141;48.980;8.410;2024-01-15T08:10:07;99206.84;;;-0.72;100.00
32789;BME280;19141;48.980;8.410;2024-01-15T08:12:33;99205.78;;;-0.69;100.00
32789;BME280;19141;48.980;8.410;2024-01-15T08:14:58;99204.13;;;-0.70;100.00
32789;BME280;19141;48.980;8.410;2024-01-15T08:17:23;99206.72;;;-0.70;100.00
32789;BME280;19141;48.980;8.410;2024-01-15T08:19:53;99202.31;;;-0.70;100.00
32789;BME280;19141;48.980;8.410;2024-01-15T08:22:18;99194.53;;;-0.60;100.00
32789;BME280;19141;48.980;8.410;2024-01-15T08:24:44;99193.75;;;-0.30;100.00
32789;BME280;19141;48.980;8.410;2024-01-15T08:27:09;99193.97;;;-0.43;100.00
32789;BME280;19141;48.980;8.410;2024-01-15T08:29:35;99186.91;;;-0.52;100.00
32789;BME280;19141;48.980;8.410;2024-01-15T08:32:00;99183.44;;;-0.32;100.00
32789;BME280;19141;48.980;8.410;2024-01-15T08:34:25;99176.84;;;-0.47;100.00
32789;BME280;19141;48.980;8.410;2024-01-15T08:36:51;99172.44;;;-0.46;100.00
32789;BME280;19141;48.980;8.410;2024-01-15T08:39:16;99176.19;;;-0.18;100.00
32789;BME280;19141;48.980;8.410;2024-01-15T08:41:43;99165.97;;;-0.21;100.00
32789;BME280;19141;48.980;8.410;2024-01-15T08:44:08;99165.13;;;-0.22;100.00
32789;BME280;19141;48.980;8.410;2024-01-15T08:46:34;99164.06;;;-0.19;100.00
32789;BME280;19141;48.980;8.410;2024-01-15T08:48:59;99161.09;;;-0.05;100.00
32789;BME280;19141;48.980;8.410;2024-01-15T08:51:24;99178.00;;;-0.09;100.00
32789;BME280;19141;48.980;8.410;2024-01-15T08:53:50;99182.38;;;-0.19;100.00
32789;BME280;19141;48.980;8.410;2024-01-15T08:56:15;99185.19;;;-0.02;100.00
32789;BME280;19141;48.980;8.410;2024-01-15T08:58:41;99188.03;;;-0.14;100.00
32789;BME280;19141;48.980;8.410;2024-01-15T09:01:06;99182.56;;;-0.02;100.00
32789;BME280;19141;48.980;8.410;2024-01-15T09:03:32;99182.03;;;-0.05;100.00
32789;BME280;19141;48.980;8.410;2024-01-15T09:05:59;99173.66;;;0.01;100.00
32789;BME280;19141;48.980;8.410;2024-01-15T09:08:24;99175.75;;;0.07;100.00
32789;BME280;19141;48.980;8.410;2024-01-15T09:10:51;99162.47;;;-0.01;100.00
32789;BME280;19141;48.980;8.410;2024-01-15T09:13:16;99157.72;;;0.14;100.00
32789;BME280;19141;48.980;8.410;2024-01-15T09:15:42;99164.50;;;0.36;100.00
32789;BME280;19141;48.980;8.410;2024-01-15T09:18:07;99165.31;;;0.26;100.00
32789;BME280;19141;48.980;8.410;2024-01-15T09:20:33;99163.94;;;0.32;100.00
32789;BME280;19141;48.980;8.410;2024-01-15T09:22:58;99160.19;;;0.25;100.00
32789;BME280;19141;48.980;8.410;2024-01-15T09:25:25;99159.16;;;0.47;100.00
32789;BME280;19141;48.980;8.410;2024-01-15T09:27:50;99156.66;;;0.45;100.00
32789;BME280;19141;48.980;8.410;2024-01-15T09:30:15;99149.09;;;0.62;98.63
32789;BME280;19141;48.980;8.410;2024-01-15T09:32:41;99149.09;;;0.42;100.00
32789;BME280;19141;48.980;8.410;2024-01-15T09:35:07;99163.59;;;0.46;100.00
32789;BME280;19141;48.980;8.410;2024-01-15T09:37:32;99158.59;;;0.43;100.00
32789;BME280;19141;48.980;8.410;2024-01-15T09:39:58;99152.78;;;0.30;100.00
32789;BME280;19141;48.980;8.410;2024-01-15T09:42:26;99147.44;;;0.51;100.00
32789;BME280;19141;48.980;8.410;2024-01-15T09:44:52;99153.34;;;0.43;100.00
32789;BME280;19141;48.980;8.410;2024-01-15T09:47:19;99153.25;;;0.54;100.00
32789;BME280;19141;48.980;8.410;2024-01-15T09:49:45;99152.25;;;0.36;100.00
32789;BME280;19141;48.980;8.410;2024-01-15T09:52:11;99147.16;;;0.44;100.00
32789;BME280;19141;48.980;8.410;2024-01-15T09:54:37;99148.53;;;0.48;100.00
32789;BME280;19141;48.980;8.410;2024-01-15T09:57:03;99131.59;;;0.52;100.00
32789;BME280;19141;48.980;8.410;2024-01-15T09:59:29;99138.19;;;0.57;100.00
32789;BME280;19141;48.980;8.410;2024-01-15T10:01:56;99125.91;;;0.57;100.00
32789;BME280;19141;48.980;8.410;2024-01-15T10:04:22;99134.47;;;0.49;100.00
32789;BME280;19141;48.980;8.410;2024-01-15T10:06:50;99124.38;;;0.45;100.00
32789;BME280;19141;48.980;8.410;2024-01-15T10:09:17;99116.53;;;0.35;100.00
32789;BME280;19141;48.980;8.410;2024-01-15T10:11:43;99118.47;;;0.43;100.00
32789;BME280;19141;48.980;8.410;2024-01-15T10:14:10;99113.63;;;0.29;100.00
32789;BME280;19141;48.980;8.410;2024-01-15T10:16:41;99104.41;;;0.53;100.00
32789;BME280;19141;48.980;8.410;2024-01-15T10:19:10;99107.44;;;0.39;100.00
32789;BME280;19141;48.980;8.410;2024-01-15T10:21:35;99108.25;;;0.30;100.00
32789;BME280;19141;48.980;8.410;2024-01-15T10:24:02;99098.31;;;0.43;100.00
32789;BME280;19141;48.980;8.410;2024-01-15T10:26:28;99096.28;;;0.47;100.00
32789;BME280;19141;48.980;8.410;2024-01-15T10:28:54;99102.19;;;0.30;100.00
32789;BME280;19141;48.980;8.410;2024-01-15T10:31:19;99107.41;;;0.20;100.00
32789;BME280;19141;48.980;8.410;2024-01-15T10:33:50;99102.03;;;0.21;100.00
32789;BME280;19141;48.980;8.410;2024-01-15T10:36:16;99104.09;;;0.18;100.00
32789;BME280;19141;48.980;8.410;2024-01-15T10:38:42;99102.28;;;0.18;100.00
32789;BME280;19141;48.980;8.410;2024-01-15T10:41:08;99101.88;;;0.13;100.00
32789;BME280;19141;48.980;8.410;2024-01-15T10:43:33;99097.38;;;0.35;100.00
32789;BME280;19141;48.980;8.410;2024-01-15T10:45:59;99095.50;;;0.06;100.00
32789;BME280;19141;48.980;8.410;2024-01-15T10:48:25;99092.63;;;0.09;100.00
32789;BME280;19141;48.980;8.410;2024-01-15T10:50:53;99091.41;;;0.23;100.00
32789;BME280;19141;48.980;8.410;2024-01-15T10:53:19;99090.03;;;0.29;100.00
32789;BME280;19141;48.980;8.410;2024-01-15T10:55:46;99081.06;;;0.31;100.00
32789;BME280;19141;48.980;8.410;2024-01-15T10:58:14;99071.72;;;0.48;100.00
32789;BME280;19141;48.980;8.410;2024-01-15T11:00:40;99069.06;;;0.19;100.00
32789;BME280;19141;48.980;8.410;2024-01-15T11:03:06;99069.34;;;0.25;100.00
32789;BME280;19141;48.980;8.410;2024-01-15T11:05:41;99069.34;;;0.16;100.00
32789;BME280;19141;48.980;8.410;2024-01-15T11:08:07;99079.69;;;0.17;100.00
32789;BME280;19141;48.980;8.410;2024-01-15T11:10:44;99069.88;;;0.10;100.00
32789;BME280;19141;48.980;8.410;2024-01-15T11:16:09;99072.22;;;0.13;100.00
32789;BME280;19141;48.980;8.410;2024-01-15T11:18:41;99069.63;;;0.22;100.00
32789;BME280;19141;48.980;8.410;2024-01-15T11:23:45;99066.34;;;0.20;100.00
32789;BME280;19141;48.980;8.410;2024-01-15T11:29:06;99064.66;;;0.39;100.00
32789;BME280;19141;48.980;8.410;2024-01-15T11:34:04;99075.41;;;0.07;100.00
32789;BME280;19141;48.980;8.410;2024-01-15T11:41:53;99092.53;;;0.20;100.00
32789;BME280;19141;48.980;8.410;2024-01-15T11:44:19;99084.78;;;0.19;100.00
32789;BME280;19141;48.980;8.410;2024-01-15T11:46:57;99092.91;;;0.25;100.00
32789;BME280;19141;48.980;8.410;2024-01-15T11:52:20;99098.41;;;0.03;100.00
32789;BME280;19141;48.980;8.410;2024-01-15T11:55:10;99098.84;;;0.08;100.00
32789;BME280;19141;48.980;8.410;2024-01-15T12:00:06;99104.38;;;0.24;100.00
32789;BME280;19141;48.980;8.410;2024-01-15T12:02:39;99111.00;;;0.29;100.00
32789;BME280;19141;48.980;8.410;2024-01-15T12:05:07;99110.19;;;0.28;100.00
32789;BME280;19141;48.980;8.410;2024-01-15T12:07:32;99102.19;;;0.49;100.00
32789;BME280;19141;48.980;8.410;2024-01-15T12:09:58;99094.75;;;0.54;100.00
32789;BME280;19141;48.980;8.410;2024-01-15T12:12:29;99095.03;;;0.51;100.00
32789;BME280;19141;48.980;8.410;2024-01-15T12:14:59;99096.56;;;0.53;100.00
32789;BME280;19141;48.980;8.410;2024-01-15T12:17:24;99095.56;;;0.45;100.00
32789;BME280;19141;48.980;8.410;2024-01-15T12:19:49;99099.59;;;0.49;100.00
32789;BME280;19141;48.980;8.410;2024-01-15T12:22:15;99103.31;;;0.46;100.00
32789;BME280;19141;48.980;8.410;2024-01-15T12:24:40;99104.13;;;0.57;100.00
32789;BME280;19141;48.980;8.410;2024-01-15T12:27:06;99098.22;;;0.54;100.00
32789;BME280;19141;48.980;8.410;2024-01-15T12:29:33;99101.66;;;0.55;100.00
32789;BME280;19141;48.980;8.410;2024-01-15T12:31:58;99103.31;;;0.46;100.00
32789;BME280;19141;48.980;8.410;2024-01-15T12:34:23;99103.97;;;0.58;100.00
32789;BME280;19141;48.980;8.410;2024-01-15T12:36:49;99096.00;;;0.60;100.00
32789;BME280;19141;48.980;8.410;2024-01-15T12:39:15;99102.59;;;1.02;100.00
32789;BME280;19141;48.980;8.410;2024-01-15T12:41:41;99095.13;;;1.07;100.00
32789;BME280;19141;48.980;8.410;2024-01-15T12:44:06;99096.41;;;0.94;100.00
32789;BME280;19141;48.980;8.410;2024-01-15T12:46:32;99097.38;;;0.93;100.00
32789;BME280;19141;48.980;8.410;2024-01-15T12:48:57;99104.97;;;0.86;100.00
32789;BME280;19141;48.980;8.410;2024-01-15T12:51:26;99102.19;;;1.07;100.00
32789;BME280;19141;48.980;8.410;2024-01-15T12:53:52;99099.81;;;1.14;100.00
32789;BME280;19141;48.980;8.410;2024-01-15T12:56:18;99106.03;;;1.03;100.00
32789;BME280;19141;48.980;8.410;2024-01-15T12:58:43;99112.28;;;0.92;100.00
32789;BME280;19141;48.980;8.410;2024-01-15T13:01:08;99108.53;;;0.95;100.00
32789;BME280;19141;48.980;8.410;2024-01-15T13:03:34;99102.75;;;1.01;100.00
32789;BME280;19141;48.980;8.410;2024-01-15T13:06:00;99098.34;;;0.92;100.00
32789;BME280;19141;48.980;8.410;2024-01-15T13:08:25;99105.47;;;1.09;100.00
32789;BME280;19141;48.980;8.410;2024-01-15T13:10:53;99117.47;;;1.21;100.00
32789;BME280;19141;48.980;8.410;2024-01-15T13:13:21;99117.06;;;1.26;100.00
32789;BME280;19141;48.980;8.410;2024-01-15T13:15:47;99118.41;;;1.40;100.00
32789;BME280;19141;48.980;8.410;2024-01-15T13:18:12;99115.72;;;1.12;100.00
32789;BME280;19141;48.980;8.410;2024-01-15T13:20:38;99114.97;;;1.29;100.00
32789;BME280;19141;48.980;8.410;2024-01-15T13:23:03;99115.13;;;1.28;100.00
32789;BME280;19141;48.980;8.410;2024-01-15T13:25:29;99122.19;;;1.18;100.00
32789;BME280;19141;48.980;8.410;2024-01-15T13:27:54;99120.41;;;1.18;100.00
32789;BME280;19141;48.980;8.410;2024-01-15T13:30:20;99122.03;;;1.19;100.00
32789;BME280;19141;48.980;8.410;2024-01-15T13:32:45;99123.09;;;1.46;100.00
32789;BME280;19141;48.980;8.410;2024-01-15T13:35:12;99111.44;;;1.11;100.00
32789;BME280;19141;48.980;8.410;2024-01-15T13:37:38;99121.06;;;1.20;100.00
32789;BME280;19141;48.980;8.410;2024-01-15T13:40:07;99134.34;;;1.09;100.00
32789;BME280;19141;48.980;8.410;2024-01-15T13:42:35;99136.97;;;1.09;100.00
32789;BME280;19141;48.980;8.410;2024-01-15T13:45:04;99132.28;;;0.93;100.00
32789;BME280;19141;48.980;8.410;2024-01-15T13:47:31;99134.34;;;1.09;100.00
32789;BME280;19141;48.980;8.410;2024-01-15T13:49:57;99131.28;;;1.04;100.00
32789;BME280;19141;48.980;8.410;2024-01-15T13:52:22;99135.59;;;1.05;100.00
32789;BME280;19141;48.980;8.410;2024-01-15T13:54:47;99141.78;;;1.04;100.00
32789;BME280;19141;48.980;8.410;2024-01-15T13:57:13;99135.44;;;1.16;100.00
32789;BME280;19141;48.980;8.410;2024-01-15T13:59:38;99151.84;;;1.28;100.00
32789;BME280;19141;48.980;8.410;2024-01-15T14:02:03;99157.25;;;1.07;100.00
32789;BME280;19141;48.980;8.410;2024-01-15T14:04:30;99162.34;;;1.28;100.00
32789;BME280;19141;48.980;8.410;2024-01-15T14:06:55;99170.50;;;1.15;100.00
32789;BME280;19141;48.980;8.410;2024-01-15T14:09:21;99178.50;;;1.14;100.00
32789;BME280;19141;48.980;8.410;2024-01-15T14:11:47;99190.09;;;1.21;100.00
32789;BME280;19141;48.980;8.410;2024-01-15T14:14:13;99193.16;;;1.26;100.00
32789;BME280;19141;48.980;8.410;2024-01-15T14:16:39;99195.22;;;1.32;100.00
32789;BME280;19141;48.980;8.410;2024-01-15T14:19:04;99185.13;;;1.27;100.00
32789;BME280;19141;48.980;8.410;2024-01-15T14:21:31;99186.56;;;1.69;100.00
32789;BME280;19141;48.980;8.410;2024-01-15T14:23:57;99189.22;;;1.59;100.00
32789;BME280;19141;48.980;8.410;2024-01-15T14:26:22;99186.75;;;1.48;100.00
32789;BME280;19141;48.980;8.410;2024-01-15T14:28:47;99192.84;;;1.39;100.00
32789;BME280;19141;48.980;8.410;2024-01-15T14:31:13;99207.91;;;1.36;100.00
32789;BME280;19141;48.980;8.410;2024-01-15T14:33:39;99212.88;;;1.40;100.00
32789;BME280;19141;48.980;8.410;2024-01-15T14:36:05;99205.94;;;1.58;100.00
32789;BME280;19141;48.980;8.410;2024-01-15T14:38:30;99212.19;;;1.57;100.00
32789;BME280;19141;48.980;8.410;2024-01-15T14:40:55;99210.78;;;1.43;100.00
32789;BME280;19141;48.980;8.410;2024-01-15T14:43:21;99215.47;;;1.49;100.00
32789;BME280;19141;48.980;8.410;2024-01-15T14:45:47;99225.44;;;1.46;100.00
32789;BME280;19141;48.980;8.410;2024-01-15T14:48:12;99231.13;;;1.31;100.00
32789;BME280;19141;48.980;8.410;2024-01-15T14:50:39;99239.09;;;1.30;100.00
32789;BME280;19141;48.980;8.410;2024-01-15T14:53:05;99246.31;;;1.18;100.00
32789;BME280;19141;48.980;8.410;2024-01-15T14:55:30;99251.41;;;1.10;100.00
32789;BME280;19141;48.980;8.410;2024-01-15T14:57:57;99251.81;;;1.15;100.00
32789;BME280;19141;48.980;8.410;2024-01-15T15:00:23;99254.56;;;1.23;100.00
32789;BME280;19141;48.980;8.410;2024-01-15T15:02:48;99261.91;;;1.20;100.00
32789;BME280;19141;48.980;8.410;2024-01-15T15:05:14;99265.88;;;0.95;100.00
32789;BME280;19141;48.980;8.410;2024-01-15T15:07:42;99253.75;;;0.94;100.00
32789;BME280;19141;48.980;8.410;2024-01-15T15:10:08;99260.50;;;0.96;100.00
32789;BME280;19141;48.980;8.410;2024-01-15T15:12:35;99259.41;;;1.08;100.00
32789;BME280;19141;48.980;8.410;2024-01-15T15:15:01;99248.91;;;0.99;100.00
32789;BME280;19141;48.980;8.410;2024-01-15T15:17:26;99256.91;;;0.88;100.00
32789;BME280;19141;48.980;8.410;2024-01-15T15:19:52;99267.09;;;0.91;100.00
32789;BME280;19141;48.980;8.410;2024-01-15T15:22:21;99264.50;;;1.00;100.00
32789;BME280;19141;48.980;8.410;2024-01-15T15:24:46;99270.69;;;0.90;100.00
32789;BME280;19141;48.980;8.410;2024-01-15T15:27:12;99277.88;;;0.88;100.00
32789;BME280;19141;48.980;8.410;2024-01-15T15:29:37;99276.22;;;0.87;100.00
32789;BME280;19141;48.980;8.410;2024-01-15T15:32:03;99283.81;;;0.90;100.00
32789;BME280;19141;48.980;8.410;2024-01-15T15:34:28;99294.59;;;0.87;100.00
32789;BME280;19141;48.980;8.410;2024-01-15T15:36:54;99295.66;;;0.74;100.00
32789;BME280;19141;48.980;8.410;2024-01-15T15:39:19;99305.56;;;0.71;100.00
32789;BME280;19141;48.980;8.410;2024-01-15T15:41:44;99302.81;;;0.72;100.00
32789;BME280;19141;48.980;8.410;2024-01-15T15:44:10;99303.66;;;0.82;100.00
32789;BME280;19141;48.980;8.410;2024-01-15T15:46:38;99304.78;;;0.90;100.00
32789;BME280;19141;48.980;8.410;2024-01-15T15:49:03;99314.44;;;0.79;100.00
32789;BME280;19141;48.980;8.410;2024-01-15T15:51:32;99321.34;;;0.80;100.00
32789;BME280;19141;48.980;8.410;2024-01-15T15:53:58;99328.22;;;0.81;100.00
32789;BME280;19141;48.980;8.410;2024-01-15T15:56:23;99316.53;;;0.95;100.00
32789;BME280;19141;48.980;8.410;2024-01-15T15:58:51;99321.50;;;0.89;100.00
32789;BME280;19141;48.980;8.410;2024-01-15T16:01:16;99328.38;;;0.90;100.00
32789;BME280;19141;48.980;8.410;2024-01-15T16:03:42;99323.28;;;0.88;100.00
32789;BME280;19141;48.980;8.410;2024-01-15T16:06:07;99328.22;;;0.81;100.00
32789;BME280;19141;48.980;8.410;2024-01-15T16:08:33;99338.78;;;1.01;100.00
32789;BME280;19141;48.980;8.410;2024-01-15T16:10:59;99341.34;;;0.81;100.00
32789;BME280;19141;48.980;8.410;2024-01-15T16:13:24;99340.66;;;0.79;100.00
32789;BME280;19141;48.980;8.410;2024-01-15T16:15:49;99344.53;;;0.85;100.00
32789;BME280;19141;48.980;8.410;2024-01-15T16:18:15;99358.44;;;0.76;100.00
32789;BME280;19141;48.980;8.410;2024-01-15T16:20:41;99355.50;;;0.69;100.00
32789;BME280;19141;48.980;8.410;2024-01-15T16:23:07;99358.56;;;0.74;100.00
32789;BME280;19141;48.980;8.410;2024-01-15T16:25:33;99362.69;;;0.67;100.00
32789;BME280;19141;48.980;8.410;2024-01-15T16:28:06;99374.31;;;0.74;100.00
32789;BME280;19141;48.980;8.410;2024-01-15T16:30:31;99376.22;;;0.72;100.00
32789;BME280;19141;48.980;8.410;2024-01-15T16:32:57;99384.09;;;0.72;100.00
32789;BME280;19141;48.980;8.410;2024-01-15T16:35:22;99381.72;;;0.69;100.00
32789;BME280;19141;48.980;8.410;2024-01-15T16:37:47;99382.41;;;0.71;100.00
32789;BME280;19141;48.980;8.410;2024-01-15T16:40:13;99379.94;;;0.70;100.00
32789;BME280;19141;48.980;8.410;2024-01-15T16:42:39;99392.50;;;0.76;100.00
32789;BME280;19141;48.980;8.410;2024-01-15T16:45:05;99398.34;;;0.79;100.00
32789;BME280;19141;48.980;8.410;2024-01-15T16:47:30;99400.97;;;0.79;100.00
32789;BME280;19141;48.980;8.410;2024-01-15T16:49:56;99405.09;;;0.82;100.00
32789;BME280;19141;48.980;8.410;2024-01-15T16:52:21;99410.03;;;0.75;100.00
32789;BME280;19141;48.980;8.410;2024-01-15T16:54:47;99422.03;;;0.78;100.00
32789;BME280;19141;48.980;8.410;2024-01-15T16:57:12;99416.09;;;0.76;100.00
32789;BME280;19141;48.980;8.410;2024-01-15T16:59:37;99432.16;;;0.82;100.00
32789;BME280;19141;48.980;8.410;2024-01-15T17:02:04;99423.66;;;0.69;100.00
32789;BME280;19141;48.980;8.410;2024-01-15T17:04:29;99429.44;;;0.63;100.00
32789;BME280;19141;48.980;8.410;2024-01-15T17:06:54;99426.97;;;0.71;100.00
32789;BME280;19141;48.980;8.410;2024-01-15T17:09:20;99424.34;;;0.71;100.00
32789;BME280;19141;48.980;8.410;2024-01-15T17:11:45;99427.25;;;0.68;100.00
32789;BME280;19141;48.980;8.410;2024-01-15T17:14:10;99426.56;;;0.66;100.00
32789;BME280;19141;48.980;8.410;2024-01-15T17:16:36;99431.28;;;0.51;100.00
32789;BME280;19141;48.980;8.410;2024-01-15T17:19:01;99438.81;;;0.45;100.00
32789;BME280;19141;48.980;8.410;2024-01-15T17:21:27;99436.72;;;0.39;100.00
32789;BME280;19141;48.980;8.410;2024-01-15T17:23:52;99451.06;;;0.35;100.00
32789;BME280;19141;48.980;8.410;2024-01-15T17:26:17;99442.09;;;0.37;100.00
32789;BME280;19141;48.980;8.410;2024-01-15T17:28:44;99452.31;;;0.19;100.00
32789;BME280;19141;48.980;8.410;2024-01-15T17:31:10;99466.59;;;0.26;100.00
32789;BME280;19141;48.980;8.410;2024-01-15T17:33:35;99467.34;;;0.38;100.00
32789;BME280;19141;48.980;8.410;2024-01-15T17:36:00;99461.22;;;0.49;100.00
32789;BME280;19141;48.980;8.410;2024-01-15T17:38:27;99466.84;;;0.65;100.00
32789;BME280;19141;48.980;8.410;2024-01-15T17:40:53;99478.09;;;0.56;100.00
32789;BME280;19141;48.980;8.410;2024-01-15T17:43:19;99481.66;;;0.76;100.00
32789;BME280;19141;48.980;8.410;2024-01-15T17:45:46;99483.09;;;0.90;100.00
32789;BME280;19141;48.980;8.410;2024-01-15T17:48:11;99488.50;;;0.67;100.00
32789;BME280;19141;48.980;8.410;2024-01-15T17:50:37;99482.75;;;0.73;100.00
32789;BME280;19141;48.980;8.410;2024-01-15T17:53:06;99493.75;;;0.67;100.00
32789;BME280;19141;48.980;8.410;2024-01-15T17:55:31;99493.25;;;0.73;100.00
32789;BME280;19141;48.980;8.410;2024-01-15T17:57:57;99503.53;;;0.65;100.00
32789;BME280;19141;48.980;8.410;2024-01-15T18:00:23;99500.75;;;0.88;100.00
32789;BME280;19141;48.980;8.410;2024-01-15T18:02:48;99501.09;;;0.73;100.00
32789;BME280;19141;48.980;8.410;2024-01-15T18:05:17;99505.84;;;0.79;100.00
32789;BME280;19141;48.980;8.410;2024-01-15T18:07:42;99514.22;;;0.73;100.00
32789;BME280;19141;48.980;8.410;2024-01-15T18:10:08;99508.31;;;0.81;100.00
32789;BME280;19141;48.980;8.410;2024-01-15T18:12:36;99512.56;;;0.72;100.00
32789;BME280;19141;48.980;8.410;2024-01-15T18:15:01;99525.44;;;0.64;100.00
32789;BME280;19141;48.980;8.410;2024-01-15T18:17:27;99523.72;;;0.74;100.00
32789;BME280;19141;48.980;8.410;2024-01-15T18:19:53;99523.78;;;0.63;100.00
32789;BME280;19141;48.980;8.410;2024-01-15T18:22:18;99529.50;;;0.68;100.00
32789;BME280;19141;48.980;8.410;2024-01-15T18:24:45;99528.97;;;0.74;100.00
32789;BME280;19141;48.980;8.410;2024-01-15T18:27:10;99531.84;;;0.71;100.00
32789;BME280;19141;48.980;8.410;2024-01-15T18:29:36;99534.03;;;0.66;100.00
32789;BME280;19141;48.980;8.410;2024-01-15T18:32:02;99536.91;;;0.63;100.00
32789;BME280;19141;48.980;8.410;2024-01-15T18:34:28;99540.09;;;0.67;100.00